sensor_id;sensor_type;location;lat;lon;timestamp;pressure;altitude;pressure_sealevel;temperature;humidity
19783;BME280;10051;40.294;-3.754;2023-02-11T00:00:15;95713.44;;;4.63;65.85
19783;BME280;10051;40.294;-3.754;2023-02-11T00:02:41;95549.47;;;3.55;66.15
19783;BME280;10051;40.294;-3.754;2023-02-11T00:05:07;95670.38;;;4.27;66.11
19783;BME280;10051;40.294;-3.754;2023-02-11T00:07:33;95737.66;;;4.70;66.72
19783;BME280;10051;40.294;-3.754;2023-02-11T00:09:59;95745.28;;;4.65;66.86
19783;BME280;10051;40.294;-3.754;2023-02-11T00:12:27;95668.41;;;4.15;66.56
19783;BME280;10051;40.294;-3.754;2023-02-11T00:14:53;95655.16;;;4.10;66.78
19783;BME280;10051;40.294;-3.754;2023-02-11T00:17:18;95717.25;;;4.47;66.66
19783;BME280;10051;40.294;-3.754;2023-02-11T00:19:48;95732.25;;;4.65;66.61
19783;BME280;10051;40.294;-3.754;2023-02-11T00:22:14;95617.13;;;3.96;66.41
19783;BME280;10051;40.294;-3.754;2023-02-11T00:24:39;95612.31;;;3.86;66.31
19783;BME280;10051;40.294;-3.754;2023-02-11T00:27:05;95711.25;;;4.46;67.47
19783;BME280;10051;40.294;-3.754;2023-02-11T00:29:30;95637.75;;;3.97;67.28
19783;BME280;10051;40.294;-3.754;2023-02-11T00:31:56;95672.97;;;4.27;66.82
19783;BME280;10051;40.294;-3.754;2023-02-11T00:34:21;95708.66;;;4.40;67.24
19783;BME280;10051;40.294;-3.754;2023-02-11T00:36:47;95676.97;;;4.23;67.26
19783;BME280;10051;40.294;-3.754;2023-02-11T00:39:14;95656.75;;;4.05;67.36
19783;BME280;10051;40.294;-3.754;2023-02-11T00:41:40;95674.59;;;4.14;67.78
19783;BME280;10051;40.294;-3.754;2023-02-11T00:44:05;95719.88;;;4.40;67.41
19783;BME280;10051;40.294;-3.754;2023-02-11T00:46:31;95727.06;;;4.45;67.51
19783;BME280;10051;40.294;-3.754;2023-02-11T00:48:57;95717.66;;;4.51;67.56
19783;BME280;10051;40.294;-3.754;2023-02-11T00:51:27;95675.19;;;4.16;67.52
19783;BME280;10051;40.294;-3.754;2023-02-11T00:53:53;95710.25;;;4.34;67.55
19783;BME280;10051;40.294;-3.754;2023-02-11T00:56:19;95633.75;;;3.88;67.29
19783;BME280;10051;40.294;-3.754;2023-02-11T00:58:45;95661.38;;;4.09;67.53
19783;BME280;10051;40.294;-3.754;2023-02-11T01:01:11;95726.25;;;4.51;67.65
19783;BME280;10051;40.294;-3.754;2023-02-11T01:03:37;95638.75;;;3.83;67.58
19783;BME280;10051;40.294;-3.754;2023-02-11T01:06:04;95618.31;;;3.60;68.21
19783;BME280;10051;40.294;-3.754;2023-02-11T01:08:30;95700.81;;;4.20;68.46
19783;BME280;10051;40.294;-3.754;2023-02-11T01:11:01;95727.88;;;4.32;68.62
19783;BME280;10051;40.294;-3.754;2023-02-11T01:13:29;95725.47;;;4.24;68.61
19783;BME280;10051;40.294;-3.754;2023-02-11T01:15:56;95711.44;;;4.18;68.81
19783;BME280;10051;40.294;-3.754;2023-02-11T01:18:23;95688.59;;;4.00;69.13
19783;BME280;10051;40.294;-3.754;2023-02-11T01:20:50;95664.16;;;3.87;69.08
19783;BME280;10051;40.294;-3.754;2023-02-11T01:23:16;95595.66;;;3.40;69.20
19783;BME280;10051;40.294;-3.754;2023-02-11T01:25:41;95698.81;;;3.95;69.24
19783;BME280;10051;40.294;-3.754;2023-02-11T01:28:18;95715.84;;;4.04;69.74
19783;BME280;10051;40.294;-3.754;2023-02-11T01:30:44;95719.84;;;4.07;69.75
19783;BME280;10051;40.294;-3.754;2023-02-11T01:33:10;95683.38;;;3.73;70.19
19783;BME280;10051;40.294;-3.754;2023-02-11T01:35:37;95690.97;;;3.68;70.87
19783;BME280;10051;40.294;-3.754;2023-02-11T01:38:03;95652.50;;;3.50;70.89
19783;BME280;10051;40.294;-3.754;2023-02-11T01:40:28;95733.47;;;4.02;71.03
19783;BME280;10051;40.294;-3.754;2023-02-11T01:42:54;95595.34;;;2.94;71.00
19783;BME280;10051;40.294;-3.754;2023-02-11T01:48:13;95724.66;;;3.96;70.75
19783;BME280;10051;40.294;-3.754;2023-02-11T01:50:40;95740.66;;;4.07;70.38
19783;BME280;10051;40.294;-3.754;2023-02-11T01:53:07;95727.47;;;4.08;70.13
19783;BME280;10051;40.294;-3.754;2023-02-11T01:56:13;95728.25;;;4.02;70.25
19783;BME280;10051;40.294;-3.754;2023-02-11T01:59:16;95701.75;;;3.65;71.01
19783;BME280;10051;40.294;-3.754;2023-02-11T02:01:45;95716.97;;;3.68;71.19
19783;BME280;10051;40.294;-3.754;2023-02-11T02:04:15;95664.09;;;3.47;71.09
19783;BME280;10051;40.294;-3.754;2023-02-11T02:06:48;95719.59;;;3.81;70.70
19783;BME280;10051;40.294;-3.754;2023-02-11T02:09:20;95716.59;;;3.84;71.01
19783;BME280;10051;40.294;-3.754;2023-02-11T02:11:49;95711.41;;;3.78;71.05
19783;BME280;10051;40.294;-3.754;2023-02-11T02:14:15;95715.38;;;3.80;70.91
19783;BME280;10051;40.294;-3.754;2023-02-11T02:16:40;95712.22;;;3.92;70.44
19783;BME280;10051;40.294;-3.754;2023-02-11T02:19:38;95711.00;;;3.87;70.38
19783;BME280;10051;40.294;-3.754;2023-02-11T02:22:20;95709.41;;;3.86;70.59
19783;BME280;10051;40.294;-3.754;2023-02-11T02:25:19;95699.00;;;3.86;70.39
19783;BME280;10051;40.294;-3.754;2023-02-11T02:28:14;95648.31;;;3.49;70.52
19783;BME280;10051;40.294;-3.754;2023-02-11T02:31:05;95707.22;;;3.97;70.57
19783;BME280;10051;40.294;-3.754;2023-02-11T02:33:47;95701.38;;;3.81;70.70
19783;BME280;10051;40.294;-3.754;2023-02-11T02:36:23;95703.59;;;3.71;71.30
19783;BME280;10051;40.294;-3.754;2023-02-11T02:39:13;95676.31;;;3.53;71.02
19783;BME280;10051;40.294;-3.754;2023-02-11T02:41:42;95664.47;;;3.37;71.48
19783;BME280;10051;40.294;-3.754;2023-02-11T02:44:09;95638.84;;;3.27;71.45
19783;BME280;10051;40.294;-3.754;2023-02-11T02:46:36;95639.03;;;3.33;71.62
19783;BME280;10051;40.294;-3.754;2023-02-11T02:49:02;95638.63;;;3.22;71.46
19783;BME280;10051;40.294;-3.754;2023-02-11T02:52:20;95680.53;;;3.54;71.41
19783;BME280;10051;40.294;-3.754;2023-02-11T02:57:27;95679.50;;;3.49;71.62
19783;BME280;10051;40.294;-3.754;2023-02-11T03:00:17;95669.50;;;3.52;71.28
19783;BME280;10051;40.294;-3.754;2023-02-11T03:05:53;95598.19;;;3.13;70.79
19783;BME280;10051;40.294;-3.754;2023-02-11T03:08:33;95672.72;;;3.61;70.48
19783;BME280;10051;40.294;-3.754;2023-02-11T03:11:02;95586.41;;;3.17;70.37
19783;BME280;10051;40.294;-3.754;2023-02-11T03:13:33;95619.44;;;3.37;70.05
19783;BME280;10051;40.294;-3.754;2023-02-11T03:16:12;95645.31;;;3.52;70.12
19783;BME280;10051;40.294;-3.754;2023-02-11T03:18:41;95640.69;;;3.47;70.31
19783;BME280;10051;40.294;-3.754;2023-02-11T03:21:10;95612.81;;;3.21;70.84
19783;BME280;10051;40.294;-3.754;2023-02-11T03:23:38;95654.13;;;3.57;70.41
19783;BME280;10051;40.294;-3.754;2023-02-11T03:26:29;95646.53;;;3.83;68.91
19783;BME280;10051;40.294;-3.754;2023-02-11T03:31:40;95644.88;;;3.48;70.44
19783;BME280;10051;40.294;-3.754;2023-02-11T03:34:20;95642.47;;;3.40;70.91
19783;BME280;10051;40.294;-3.754;2023-02-11T03:37:03;95638.91;;;3.48;70.33
19783;BME280;10051;40.294;-3.754;2023-02-11T03:39:36;95652.69;;;3.48;69.97
19783;BME280;10051;40.294;-3.754;2023-02-11T03:42:05;95640.28;;;3.44;70.22
19783;BME280;10051;40.294;-3.754;2023-02-11T03:44:36;95608.84;;;3.32;69.58
19783;BME280;10051;40.294;-3.754;2023-02-11T03:47:06;95632.88;;;3.47;69.48
19783;BME280;10051;40.294;-3.754;2023-02-11T03:49:34;95601.22;;;3.23;69.54
19783;BME280;10051;40.294;-3.754;2023-02-11T03:52:02;95579.78;;;3.08;69.21
19783;BME280;10051;40.294;-3.754;2023-02-11T03:54:30;95635.28;;;3.49;69.06
19783;BME280;10051;40.294;-3.754;2023-02-11T03:56:58;95539.75;;;2.82;69.05
19783;BME280;10051;40.294;-3.754;2023-02-11T03:59:25;95454.47;;;2.30;69.07
19783;BME280;10051;40.294;-3.754;2023-02-11T04:01:51;95626.25;;;3.31;69.56
19783;BME280;10051;40.294;-3.754;2023-02-11T04:04:17;95508.47;;;2.48;69.29
19783;BME280;10051;40.294;-3.754;2023-02-11T04:06:43;95634.88;;;3.38;69.44
19783;BME280;10051;40.294;-3.754;2023-02-11T04:09:10;95542.47;;;2.67;69.22
19783;BME280;10051;40.294;-3.754;2023-02-11T04:11:35;95572.34;;;2.91;69.22
19783;BME280;10051;40.294;-3.754;2023-02-11T04:14:01;95531.91;;;2.68;69.44
19783;BME280;10051;40.294;-3.754;2023-02-11T04:16:27;95632.22;;;3.32;69.28
19783;BME280;10051;40.294;-3.754;2023-02-11T04:18:54;95511.06;;;2.48;69.58
19783;BME280;10051;40.294;-3.754;2023-02-11T04:21:20;95584.97;;;3.01;69.56
19783;BME280;10051;40.294;-3.754;2023-02-11T04:23:45;95573.94;;;2.92;69.43
19783;BME280;10051;40.294;-3.754;2023-02-11T04:26:11;95602.41;;;3.14;68.71
19783;BME280;10051;40.294;-3.754;2023-02-11T04:28:37;95583.59;;;3.12;68.66
19783;BME280;10051;40.294;-3.754;2023-02-11T04:31:02;95634.31;;;3.50;68.49
19783;BME280;10051;40.294;-3.754;2023-02-11T04:33:29;95611.25;;;3.26;68.52
19783;BME280;10051;40.294;-3.754;2023-02-11T04:35:55;95635.25;;;3.42;68.59
19783;BME280;10051;40.294;-3.754;2023-02-11T04:38:20;95586.19;;;3.05;68.96
19783;BME280;10051;40.294;-3.754;2023-02-11T04:40:48;95542.91;;;2.71;69.08
19783;BME280;10051;40.294;-3.754;2023-02-11T04:43:14;95625.25;;;3.25;69.50
19783;BME280;10051;40.294;-3.754;2023-02-11T04:45:40;95620.81;;;3.26;69.13
19783;BME280;10051;40.294;-3.754;2023-02-11T04:48:05;95610.44;;;3.26;68.71
19783;BME280;10051;40.294;-3.754;2023-02-11T04:50:31;95605.44;;;3.24;68.55
19783;BME280;10051;40.294;-3.754;2023-02-11T04:52:56;95619.66;;;3.29;69.11
19783;BME280;10051;40.294;-3.754;2023-02-11T04:55:22;95537.72;;;2.71;68.54
19783;BME280;10051;40.294;-3.754;2023-02-11T04:57:48;95510.28;;;2.61;68.81
19783;BME280;10051;40.294;-3.754;2023-02-11T05:00:14;95426.19;;;2.00;69.07
19783;BME280;10051;40.294;-3.754;2023-02-11T05:02:39;95583.59;;;3.05;69.15
19783;BME280;10051;40.294;-3.754;2023-02-11T05:05:05;95588.81;;;3.12;68.89
19783;BME280;10051;40.294;-3.754;2023-02-11T05:07:31;95624.50;;;3.59;68.13
19783;BME280;10051;40.294;-3.754;2023-02-11T05:09:57;95563.84;;;3.38;66.76
19783;BME280;10051;40.294;-3.754;2023-02-11T05:12:25;95623.72;;;3.98;66.23
19783;BME280;10051;40.294;-3.754;2023-02-11T05:14:51;95604.91;;;4.03;65.22
19783;BME280;10051;40.294;-3.754;2023-02-11T05:17:16;95607.50;;;3.69;66.47
19783;BME280;10051;40.294;-3.754;2023-02-11T05:19:42;95498.97;;;2.89;66.74
19783;BME280;10051;40.294;-3.754;2023-02-11T05:22:08;95615.28;;;3.42;67.88
19783;BME280;10051;40.294;-3.754;2023-02-11T05:24:33;95524.72;;;2.71;68.66
19783;BME280;10051;40.294;-3.754;2023-02-11T05:27:00;95487.09;;;2.53;68.20
19783;BME280;10051;40.294;-3.754;2023-02-11T05:29:26;95605.06;;;3.34;67.80
19783;BME280;10051;40.294;-3.754;2023-02-11T05:31:51;95618.44;;;3.31;68.25
19783;BME280;10051;40.294;-3.754;2023-02-11T05:34:17;95628.47;;;3.34;68.25
19783;BME280;10051;40.294;-3.754;2023-02-11T05:36:43;95611.66;;;3.37;68.43
19783;BME280;10051;40.294;-3.754;2023-02-11T05:39:08;95512.34;;;2.79;68.07
19783;BME280;10051;40.294;-3.754;2023-02-11T05:41:34;95579.56;;;3.03;68.88
19783;BME280;10051;40.294;-3.754;2023-02-11T05:43:59;95580.78;;;3.07;68.88
19783;BME280;10051;40.294;-3.754;2023-02-11T05:46:25;95589.66;;;3.39;68.27
19783;BME280;10051;40.294;-3.754;2023-02-11T05:48:51;95588.44;;;3.42;67.11
19783;BME280;10051;40.294;-3.754;2023-02-11T05:51:16;95538.41;;;3.13;67.56
19783;BME280;10051;40.294;-3.754;2023-02-11T05:53:42;95604.91;;;3.83;66.59
19783;BME280;10051;40.294;-3.754;2023-02-11T05:56:07;95590.28;;;3.89;65.47
19783;BME280;10051;40.294;-3.754;2023-02-11T05:58:34;95605.28;;;4.07;65.04
19783;BME280;10051;40.294;-3.754;2023-02-11T06:01:00;95516.06;;;3.46;65.22
19783;BME280;10051;40.294;-3.754;2023-02-11T06:03:26;95604.91;;;4.03;65.00
19783;BME280;10051;40.294;-3.754;2023-02-11T06:05:51;95592.88;;;4.02;64.39
19783;BME280;10051;40.294;-3.754;2023-02-11T06:08:17;95555.69;;;3.68;64.79
19783;BME280;10051;40.294;-3.754;2023-02-11T06:10:46;95598.91;;;3.96;64.55
19783;BME280;10051;40.294;-3.754;2023-02-11T06:13:11;95564.06;;;3.63;64.77
19783;BME280;10051;40.294;-3.754;2023-02-11T06:15:37;95620.13;;;3.93;64.73
19783;BME280;10051;40.294;-3.754;2023-02-11T06:18:03;95568.47;;;3.63;64.18
19783;BME280;10051;40.294;-3.754;2023-02-11T06:20:29;95622.53;;;3.94;64.51
19783;BME280;10051;40.294;-3.754;2023-02-11T06:22:55;95598.91;;;3.96;64.00
19783;BME280;10051;40.294;-3.754;2023-02-11T06:25:20;95507.84;;;3.49;63.54
19783;BME280;10051;40.294;-3.754;2023-02-11T06:27:46;95616.31;;;4.02;64.08
19783;BME280;10051;40.294;-3.754;2023-02-11T06:30:12;95600.09;;;3.86;63.88
19783;BME280;10051;40.294;-3.754;2023-02-11T06:32:38;95614.72;;;4.01;63.87
19783;BME280;10051;40.294;-3.754;2023-02-11T06:35:03;95618.13;;;3.95;63.65
19783;BME280;10051;40.294;-3.754;2023-02-11T06:37:29;95535.84;;;3.26;65.50
19783;BME280;10051;40.294;-3.754;2023-02-11T06:39:55;95469.94;;;2.65;65.31
19783;BME280;10051;40.294;-3.754;2023-02-11T06:42:21;95619.31;;;3.59;66.31
19783;BME280;10051;40.294;-3.754;2023-02-11T06:44:46;95574.06;;;3.39;65.40
19783;BME280;10051;40.294;-3.754;2023-02-11T06:47:12;95617.72;;;3.71;65.61
19783;BME280;10051;40.294;-3.754;2023-02-11T06:49:37;95591.50;;;3.66;64.93
19783;BME280;10051;40.294;-3.754;2023-02-11T06:52:03;95589.66;;;3.46;65.23
19783;BME280;10051;40.294;-3.754;2023-02-11T06:54:29;95629.34;;;3.75;65.10
19783;BME280;10051;40.294;-3.754;2023-02-11T06:56:54;95628.50;;;3.54;65.98
19783;BME280;10051;40.294;-3.754;2023-02-11T06:59:20;95576.81;;;3.18;66.14
19783;BME280;10051;40.294;-3.754;2023-02-11T07:01:46;95599.25;;;3.39;65.96
19783;BME280;10051;40.294;-3.754;2023-02-11T07:04:12;95622.88;;;3.44;66.60
19783;BME280;10051;40.294;-3.754;2023-02-11T07:06:39;95423.94;;;2.32;65.90
19783;BME280;10051;40.294;-3.754;2023-02-11T07:09:06;95638.91;;;3.81;65.49
19783;BME280;10051;40.294;-3.754;2023-02-11T07:11:32;95628.31;;;3.69;65.22
19783;BME280;10051;40.294;-3.754;2023-02-11T07:14:04;95638.31;;;3.66;65.53
19783;BME280;10051;40.294;-3.754;2023-02-11T07:16:31;95638.09;;;3.54;66.55
19783;BME280;10051;40.294;-3.754;2023-02-11T07:18:57;95595.59;;;3.13;67.16
19783;BME280;10051;40.294;-3.754;2023-02-11T07:21:23;95633.69;;;3.54;66.72
19783;BME280;10051;40.294;-3.754;2023-02-11T07:23:49;95597.41;;;3.19;66.71
19783;BME280;10051;40.294;-3.754;2023-02-11T07:26:21;95639.47;;;3.43;67.19
19783;BME280;10051;40.294;-3.754;2023-02-11T07:28:55;95561.78;;;3.00;67.00
19783;BME280;10051;40.294;-3.754;2023-02-11T07:31:24;95571.34;;;2.92;67.82
19783;BME280;10051;40.294;-3.754;2023-02-11T07:33:53;95537.41;;;2.52;68.81
19783;BME280;10051;40.294;-3.754;2023-02-11T07:36:20;95648.03;;;3.30;68.46
19783;BME280;10051;40.294;-3.754;2023-02-11T07:38:46;95651.63;;;3.29;68.64
19783;BME280;10051;40.294;-3.754;2023-02-11T07:41:14;95651.19;;;3.12;69.76
19783;BME280;10051;40.294;-3.754;2023-02-11T07:43:41;95613.06;;;2.77;70.51
19783;BME280;10051;40.294;-3.754;2023-02-11T07:46:10;95593.34;;;2.48;71.13
19783;BME280;10051;40.294;-3.754;2023-02-11T07:48:36;95622.44;;;2.72;70.89
19783;BME280;10051;40.294;-3.754;2023-02-11T07:51:06;95652.31;;;2.96;70.89
19783;BME280;10051;40.294;-3.754;2023-02-11T07:53:31;95625.91;;;2.92;70.24
19783;BME280;10051;40.294;-3.754;2023-02-11T07:55:57;95662.81;;;3.16;69.99
19783;BME280;10051;40.294;-3.754;2023-02-11T07:58:23;95662.97;;;3.08;70.43
19783;BME280;10051;40.294;-3.754;2023-02-11T08:00:48;95610.06;;;2.74;70.66
19783;BME280;10051;40.294;-3.754;2023-02-11T08:03:14;95626.25;;;2.76;70.80
19783;BME280;10051;40.294;-3.754;2023-02-11T08:05:40;95659.78;;;3.12;70.60
19783;BME280;10051;40.294;-3.754;2023-02-11T08:08:05;95543.28;;;2.26;70.67
19783;BME280;10051;40.294;-3.754;2023-02-11T08:10:31;95672.03;;;3.25;70.35
19783;BME280;10051;40.294;-3.754;2023-02-11T08:12:57;95632.78;;;3.07;69.67
19783;BME280;10051;40.294;-3.754;2023-02-11T08:15:22;95638.97;;;3.12;69.86
19783;BME280;10051;40.294;-3.754;2023-02-11T08:17:48;95670.50;;;3.51;69.24
19783;BME280;10051;40.294;-3.754;2023-02-11T08:20:13;95666.34;;;3.64;67.78
19783;BME280;10051;40.294;-3.754;2023-02-11T08:22:39;95683.19;;;3.88;67.90
19783;BME280;10051;40.294;-3.754;2023-02-11T08:25:05;95671.34;;;3.85;67.48
19783;BME280;10051;40.294;-3.754;2023-02-11T08:27:31;95618.09;;;3.61;67.05
19783;BME280;10051;40.294;-3.754;2023-02-11T08:29:56;95629.72;;;3.79;66.36
19783;BME280;10051;40.294;-3.754;2023-02-11T08:32:24;95658.56;;;4.24;65.23
19783;BME280;10051;40.294;-3.754;2023-02-11T08:34:51;95615.28;;;4.23;64.64
19783;BME280;10051;40.294;-3.754;2023-02-11T08:37:17;95627.66;;;4.48;63.48
19783;BME280;10051;40.294;-3.754;2023-02-11T08:39:43;95690.50;;;4.99;62.65
19783;BME280;10051;40.294;-3.754;2023-02-11T08:42:12;95648.66;;;4.80;63.02
19783;BME280;10051;40.294;-3.754;2023-02-11T08:44:38;95674.00;;;5.12;62.07
19783;BME280;10051;40.294;-3.754;2023-02-11T08:47:04;95592.16;;;4.67;61.37
19783;BME280;10051;40.294;-3.754;2023-02-11T08:49:29;95683.97;;;5.28;61.63
19783;BME280;10051;40.294;-3.754;2023-02-11T08:51:56;95633.22;;;4.85;60.70
19783;BME280;10051;40.294;-3.754;2023-02-11T08:54:26;95563.38;;;4.35;61.19
19783;BME280;10051;40.294;-3.754;2023-02-11T08:56:52;95691.22;;;5.26;61.35
19783;BME280;10051;40.294;-3.754;2023-02-11T08:59:17;95670.34;;;5.26;60.34
19783;BME280;10051;40.294;-3.754;2023-02-11T09:01:43;95685.53;;;5.43;60.19
19783;BME280;10051;40.294;-3.754;2023-02-11T09:04:11;95611.09;;;5.01;59.18
19783;BME280;10051;40.294;-3.754;2023-02-11T09:06:40;95684.53;;;5.44;59.41
19783;BME280;10051;40.294;-3.754;2023-02-11T09:09:10;95660.72;;;5.27;59.15
19783;BME280;10051;40.294;-3.754;2023-02-11T09:11:36;95626.50;;;5.03;59.90
19783;BME280;10051;40.294;-3.754;2023-02-11T09:14:03;95658.22;;;5.45;58.61
19783;BME280;10051;40.294;-3.754;2023-02-11T09:16:31;95645.03;;;5.33;59.02
19783;BME280;10051;40.294;-3.754;2023-02-11T09:18:59;95609.75;;;5.24;58.31
19783;BME280;10051;40.294;-3.754;2023-02-11T09:21:25;95614.91;;;5.38;58.06
19783;BME280;10051;40.294;-3.754;2023-02-11T09:23:51;95628.72;;;5.45;58.30
19783;BME280;10051;40.294;-3.754;2023-02-11T09:26:19;95696.09;;;5.93;58.12
19783;BME280;10051;40.294;-3.754;2023-02-11T09:28:45;95648.00;;;5.76;57.61
19783;BME280;10051;40.294;-3.754;2023-02-11T09:31:14;95683.13;;;6.12;56.55
19783;BME280;10051;40.294;-3.754;2023-02-11T09:33:41;95643.06;;;5.93;56.64
19783;BME280;10051;40.294;-3.754;2023-02-11T09:36:13;95684.09;;;6.18;55.98
19783;BME280;10051;40.294;-3.754;2023-02-11T09:38:39;95575.22;;;5.61;55.96
19783;BME280;10051;40.294;-3.754;2023-02-11T09:41:05;95683.78;;;6.33;55.49
19783;BME280;10051;40.294;-3.754;2023-02-11T09:43:41;95662.47;;;6.36;55.33
19783;BME280;10051;40.294;-3.754;2023-02-11T09:46:12;95589.06;;;5.87;55.08
19783;BME280;10051;40.294;-3.754;2023-02-11T09:48:42;95677.41;;;6.47;55.03
19783;BME280;10051;40.294;-3.754;2023-02-11T09:51:37;95694.31;;;6.70;54.85
19783;BME280;10051;40.294;-3.754;2023-02-11T09:54:22;95633.28;;;6.58;54.13
19783;BME280;10051;40.294;-3.754;2023-02-11T09:56:51;95624.94;;;6.49;54.08
19783;BME280;10051;40.294;-3.754;2023-02-11T09:59:17;95663.81;;;6.82;54.03
19783;BME280;10051;40.294;-3.754;2023-02-11T10:03:00;95667.28;;;6.95;53.06
19783;BME280;10051;40.294;-3.754;2023-02-11T10:10:25;95680.09;;;7.52;51.62
19783;BME280;10051;40.294;-3.754;2023-02-11T10:12:59;95680.69;;;7.54;51.81
19783;BME280;10051;40.294;-3.754;2023-02-11T10:15:50;95684.19;;;7.79;51.21
19783;BME280;10051;40.294;-3.754;2023-02-11T10:23:59;95661.00;;;7.94;50.08
19783;BME280;10051;40.294;-3.754;2023-02-11T10:26:29;95591.09;;;7.52;50.46
19783;BME280;10051;40.294;-3.754;2023-02-11T10:28:55;95664.19;;;7.96;50.21
19783;BME280;10051;40.294;-3.754;2023-02-11T10:31:27;95661.44;;;7.91;50.12
19783;BME280;10051;40.294;-3.754;2023-02-11T10:34:01;95617.31;;;7.64;50.23
19783;BME280;10051;40.294;-3.754;2023-02-11T10:36:32;95631.81;;;7.79;50.33
19783;BME280;10051;40.294;-3.754;2023-02-11T10:41:44;95622.47;;;7.83;49.78
19783;BME280;10051;40.294;-3.754;2023-02-11T10:44:26;95669.81;;;8.24;50.00
19783;BME280;10051;40.294;-3.754;2023-02-11T10:46:54;95633.09;;;7.88;50.27
19783;BME280;10051;40.294;-3.754;2023-02-11T10:49:35;95660.13;;;8.24;49.82
19783;BME280;10051;40.294;-3.754;2023-02-11T10:52:13;95657.88;;;8.16;50.15
19783;BME280;10051;40.294;-3.754;2023-02-11T10:54:38;95649.88;;;8.11;50.49
19783;BME280;10051;40.294;-3.754;2023-02-11T10:57:04;95631.31;;;8.12;49.64
19783;BME280;10051;40.294;-3.754;2023-02-11T10:59:36;95654.03;;;8.54;48.87
19783;BME280;10051;40.294;-3.754;2023-02-11T11:02:27;95657.78;;;8.70;48.98
19783;BME280;10051;40.294;-3.754;2023-02-11T11:05:14;95617.66;;;8.58;48.82
19783;BME280;10051;40.294;-3.754;2023-02-11T11:07:51;95643.06;;;8.81;48.31
19783;BME280;10051;40.294;-3.754;2023-02-11T11:10:35;95563.03;;;8.43;48.25
19783;BME280;10051;40.294;-3.754;2023-02-11T11:13:02;95634.03;;;9.01;48.52
19783;BME280;10051;40.294;-3.754;2023-02-11T11:15:30;95603.56;;;9.00;47.32
19783;BME280;10051;40.294;-3.754;2023-02-11T11:18:15;95626.22;;;9.18;47.71
19783;BME280;10051;40.294;-3.754;2023-02-11T11:20:53;95576.66;;;8.92;47.73
19783;BME280;10051;40.294;-3.754;2023-02-11T11:23:21;95619.22;;;9.23;47.79
19783;BME280;10051;40.294;-3.754;2023-02-11T11:26:06;95617.81;;;9.33;47.75
19783;BME280;10051;40.294;-3.754;2023-02-11T11:29:12;95616.44;;;9.42;47.17
19783;BME280;10051;40.294;-3.754;2023-02-11T11:31:50;95601.13;;;9.39;47.74
19783;BME280;10051;40.294;-3.754;2023-02-11T11:34:36;95546.63;;;9.00;47.62
19783;BME280;10051;40.294;-3.754;2023-02-11T11:37:33;95592.94;;;9.52;47.23
19783;BME280;10051;40.294;-3.754;2023-02-11T11:42:36;95586.00;;;9.75;46.18
19783;BME280;10051;40.294;-3.754;2023-02-11T11:47:47;95570.47;;;10.08;45.62
19783;BME280;10051;40.294;-3.754;2023-02-11T11:56:08;95555.72;;;10.24;44.42
19783;BME280;10051;40.294;-3.754;2023-02-11T11:58:35;95532.88;;;10.07;44.29
19783;BME280;10051;40.294;-3.754;2023-02-11T12:09:34;95563.97;;;10.50;43.76
19783;BME280;10051;40.294;-3.754;2023-02-11T12:12:33;95556.56;;;10.47;44.76
19783;BME280;10051;40.294;-3.754;2023-02-11T12:15:30;95556.69;;;10.57;44.79
19783;BME280;10051;40.294;-3.754;2023-02-11T12:26:10;95529.06;;;10.77;44.27
19783;BME280;10051;40.294;-3.754;2023-02-11T12:31:30;95519.63;;;10.81;44.59
19783;BME280;10051;40.294;-3.754;2023-02-11T12:37:03;95503.44;;;10.94;43.58
19783;BME280;10051;40.294;-3.754;2023-02-11T12:54:26;95481.75;;;11.42;43.50
19783;BME280;10051;40.294;-3.754;2023-02-11T12:57:17;95403.47;;;10.99;42.21
19783;BME280;10051;40.294;-3.754;2023-02-11T13:00:06;95474.91;;;11.41;42.30
19783;BME280;10051;40.294;-3.754;2023-02-11T13:02:59;95460.59;;;11.31;42.85
19783;BME280;10051;40.294;-3.754;2023-02-11T13:05:34;95429.19;;;11.20;42.73
19783;BME280;10051;40.294;-3.754;2023-02-11T13:08:18;95408.63;;;11.16;42.25
19783;BME280;10051;40.294;-3.754;2023-02-11T13:10:48;95410.06;;;11.35;42.22
19783;BME280;10051;40.294;-3.754;2023-02-11T13:16:37;95439.25;;;11.28;42.68
19783;BME280;10051;40.294;-3.754;2023-02-11T13:24:50;95428.09;;;11.48;42.60
19783;BME280;10051;40.294;-3.754;2023-02-11T13:27:42;95386.41;;;11.40;42.28
19783;BME280;10051;40.294;-3.754;2023-02-11T13:30:35;95380.97;;;11.57;42.14
19783;BME280;10051;40.294;-3.754;2023-02-11T13:33:30;95370.25;;;11.64;41.99
19783;BME280;10051;40.294;-3.754;2023-02-11T13:38:29;95325.44;;;11.64;41.36
19783;BME280;10051;40.294;-3.754;2023-02-11T13:43:25;95402.63;;;12.07;41.42
19783;BME280;10051;40.294;-3.754;2023-02-11T13:45:57;95395.03;;;12.16;40.67
19783;BME280;10051;40.294;-3.754;2023-02-11T13:48:28;95370.34;;;11.89;41.01
19783;BME280;10051;40.294;-3.754;2023-02-11T13:51:00;95333.47;;;11.89;40.84
19783;BME280;10051;40.294;-3.754;2023-02-11T13:53:28;95325.66;;;12.05;40.45
19783;BME280;10051;40.294;-3.754;2023-02-11T13:56:30;95381.13;;;12.41;40.33
19783;BME280;10051;40.294;-3.754;2023-02-11T13:58:58;95377.16;;;12.44;40.15
19783;BME280;10051;40.294;-3.754;2023-02-11T14:04:30;95365.06;;;12.53;40.53
19783;BME280;10051;40.294;-3.754;2023-02-11T14:07:30;95372.19;;;12.53;39.92
19783;BME280;10051;40.294;-3.754;2023-02-11T14:13:28;95370.13;;;11.96;40.97
19783;BME280;10051;40.294;-3.754;2023-02-11T14:16:05;95359.53;;;11.81;41.28
19783;BME280;10051;40.294;-3.754;2023-02-11T14:21:18;95282.22;;;11.11;41.64
19783;BME280;10051;40.294;-3.754;2023-02-11T14:23:45;95205.88;;;10.63;42.09
19783;BME280;10051;40.294;-3.754;2023-02-11T14:28:51;95294.81;;;11.47;41.54
19783;BME280;10051;40.294;-3.754;2023-02-11T14:31:37;95327.75;;;12.08;41.01
19783;BME280;10051;40.294;-3.754;2023-02-11T14:42:36;95333.34;;;12.27;39.12
19783;BME280;10051;40.294;-3.754;2023-02-11T14:45:07;95261.50;;;11.84;39.13
19783;BME280;10051;40.294;-3.754;2023-02-11T14:47:45;95201.00;;;11.36;39.68
19783;BME280;10051;40.294;-3.754;2023-02-11T14:50:21;95288.75;;;12.15;39.57
19783;BME280;10051;40.294;-3.754;2023-02-11T14:52:48;95296.16;;;12.24;39.55
19783;BME280;10051;40.294;-3.754;2023-02-11T14:58:14;95334.69;;;12.35;39.46
19783;BME280;10051;40.294;-3.754;2023-02-11T15:00:56;95255.47;;;11.94;39.03
19783;BME280;10051;40.294;-3.754;2023-02-11T15:08:37;95310.81;;;11.94;39.83
19783;BME280;10051;40.294;-3.754;2023-02-11T15:11:11;95309.66;;;11.74;39.62